sensor_id;sensor_type;location;lat;lon;timestamp;P1;durP1;ratioP1;P2;durP2;ratioP2
5923;SDS011;2987;50.884;14.818;2024-02-28T00:01:04;22.53;;;15.10;;
5923;SDS011;2987;50.884;14.818;2024-02-28T00:03:30;23.50;;;14.97;;
5923;SDS011;2987;50.884;14.818;2024-02-28T00:05:57;25.40;;;15.73;;
5923;SDS011;2987;50.884;14.818;2024-02-28T00:08:23;25.43;;;15.90;;
5923;SDS011;2987;50.884;14.818;2024-02-28T00:10:49;22.50;;;15.10;;
5923;SDS011;2987;50.884;14.818;2024-02-28T00:13:15;25.77;;;15.00;;
5923;SDS011;2987;50.884;14.818;2024-02-28T00:15:42;22.93;;;14.80;;
5923;SDS011;2987;50.884;14.818;2024-02-28T00:18:07;22.53;;;14.63;;
5923;SDS011;2987;50.884;14.818;2024-02-28T00:20:33;22.90;;;14.73;;
5923;SDS011;2987;50.884;14.818;2024-02-28T00:22:59;21.03;;;14.93;;
5923;SDS011;2987;50.884;14.818;2024-02-28T00:25:25;26.43;;;17.10;;
5923;SDS011;2987;50.884;14.818;2024-02-28T00:27:51;27.17;;;16.63;;
5923;SDS011;2987;50.884;14.818;2024-02-28T00:30:17;24.53;;;15.90;;
5923;SDS011;2987;50.884;14.818;2024-02-28T00:32:43;28.50;;;16.73;;
5923;SDS011;2987;50.884;14.818;2024-02-28T00:35:09;25.50;;;15.73;;
5923;SDS011;2987;50.884;14.818;2024-02-28T00:37:35;26.40;;;16.80;;
5923;SDS011;2987;50.884;14.818;2024-02-28T00:40:01;26.00;;;16.17;;
5923;SDS011;2987;50.884;14.818;2024-02-28T00:42:27;24.50;;;15.50;;
5923;SDS011;2987;50.884;14.818;2024-02-28T00:44:53;24.47;;;15.03;;
5923;SDS011;2987;50.884;14.818;2024-02-28T00:47:19;26.00;;;16.63;;
5923;SDS011;2987;50.884;14.818;2024-02-28T00:49:45;24.23;;;15.43;;
5923;SDS011;2987;50.884;14.818;2024-02-28T00:52:11;22.90;;;14.77;;
5923;SDS011;2987;50.884;14.818;2024-02-28T00:54:37;24.17;;;16.47;;
5923;SDS011;2987;50.884;14.818;2024-02-28T00:57:02;26.70;;;17.10;;
5923;SDS011;2987;50.884;14.818;2024-02-28T00:59:29;28.87;;;16.27;;
5923;SDS011;2987;50.884;14.818;2024-02-28T01:01:55;25.83;;;15.73;;
5923;SDS011;2987;50.884;14.818;2024-02-28T01:04:20;26.67;;;16.30;;
5923;SDS011;2987;50.884;14.818;2024-02-28T01:06:46;25.33;;;16.47;;
5923;SDS011;2987;50.884;14.818;2024-02-28T01:09:12;24.20;;;16.50;;
5923;SDS011;2987;50.884;14.818;2024-02-28T01:11:38;26.10;;;16.27;;
5923;SDS011;2987;50.884;14.818;2024-02-28T01:14:04;29.10;;;17.20;;
5923;SDS011;2987;50.884;14.818;2024-02-28T01:16:30;31.80;;;16.87;;
5923;SDS011;2987;50.884;14.818;2024-02-28T01:18:56;28.17;;;18.17;;
5923;SDS011;2987;50.884;14.818;2024-02-28T01:21:22;26.87;;;17.13;;
5923;SDS011;2987;50.884;14.818;2024-02-28T01:23:48;30.40;;;17.80;;
5923;SDS011;2987;50.884;14.818;2024-02-28T01:26:14;26.87;;;17.97;;
5923;SDS011;2987;50.884;14.818;2024-02-28T01:28:40;32.23;;;18.30;;
5923;SDS011;2987;50.884;14.818;2024-02-28T01:31:08;32.90;;;19.00;;
5923;SDS011;2987;50.884;14.818;2024-02-28T01:33:34;32.53;;;18.53;;
5923;SDS011;2987;50.884;14.818;2024-02-28T01:36:00;30.77;;;18.13;;
5923;SDS011;2987;50.884;14.818;2024-02-28T01:38:26;34.47;;;19.10;;
5923;SDS011;2987;50.884;14.818;2024-02-28T01:40:52;34.03;;;18.33;;
5923;SDS011;2987;50.884;14.818;2024-02-28T01:43:18;34.57;;;20.17;;
5923;SDS011;2987;50.884;14.818;2024-02-28T01:45:45;32.30;;;19.57;;
5923;SDS011;2987;50.884;14.818;2024-02-28T01:48:11;34.80;;;19.07;;
5923;SDS011;2987;50.884;14.818;2024-02-28T01:50:38;32.93;;;18.83;;
5923;SDS011;2987;50.884;14.818;2024-02-28T01:53:05;38.23;;;20.23;;
5923;SDS011;2987;50.884;14.818;2024-02-28T01:55:34;39.37;;;21.70;;
5923;SDS011;2987;50.884;14.818;2024-02-28T01:58:01;39.23;;;22.17;;
5923;SDS011;2987;50.884;14.818;2024-02-28T02:00:32;40.97;;;22.00;;
5923;SDS011;2987;50.884;14.818;2024-02-28T02:02:59;45.63;;;23.40;;
5923;SDS011;2987;50.884;14.818;2024-02-28T02:05:26;38.73;;;21.87;;
5923;SDS011;2987;50.884;14.818;2024-02-28T02:07:52;48.47;;;24.77;;
5923;SDS011;2987;50.884;14.818;2024-02-28T02:10:20;44.77;;;24.47;;
5923;SDS011;2987;50.884;14.818;2024-02-28T02:12:46;46.97;;;24.83;;
5923;SDS011;2987;50.884;14.818;2024-02-28T02:15:12;47.07;;;24.27;;
5923;SDS011;2987;50.884;14.818;2024-02-28T02:17:41;46.70;;;23.67;;
5923;SDS011;2987;50.884;14.818;2024-02-28T02:20:09;47.73;;;24.43;;
5923;SDS011;2987;50.884;14.818;2024-02-28T02:22:37;50.07;;;25.10;;
5923;SDS011;2987;50.884;14.818;2024-02-28T02:25:06;48.10;;;24.37;;
5923;SDS011;2987;50.884;14.818;2024-02-28T02:27:32;49.83;;;25.50;;
5923;SDS011;2987;50.884;14.818;2024-02-28T02:29:58;49.27;;;25.13;;
5923;SDS011;2987;50.884;14.818;2024-02-28T02:32:24;47.17;;;25.30;;
5923;SDS011;2987;50.884;14.818;2024-02-28T02:34:50;50.87;;;25.30;;
5923;SDS011;2987;50.884;14.818;2024-02-28T02:37:16;50.20;;;25.20;;
5923;SDS011;2987;50.884;14.818;2024-02-28T02:39:42;47.80;;;24.87;;
5923;SDS011;2987;50.884;14.818;2024-02-28T02:42:08;43.10;;;22.93;;
5923;SDS011;2987;50.884;14.818;2024-02-28T02:44:34;54.37;;;26.83;;
5923;SDS011;2987;50.884;14.818;2024-02-28T02:47:00;45.87;;;24.17;;
5923;SDS011;2987;50.884;14.818;2024-02-28T02:49:26;46.97;;;24.67;;
5923;SDS011;2987;50.884;14.818;2024-02-28T02:51:52;42.73;;;24.13;;
5923;SDS011;2987;50.884;14.818;2024-02-28T02:54:18;53.63;;;26.73;;
5923;SDS011;2987;50.884;14.818;2024-02-28T02:56:44;53.47;;;25.53;;
5923;SDS011;2987;50.884;14.818;2024-02-28T02:59:10;55.23;;;26.27;;
5923;SDS011;2987;50.884;14.818;2024-02-28T03:01:37;47.10;;;25.20;;
5923;SDS011;2987;50.884;14.818;2024-02-28T03:04:03;53.53;;;26.77;;
5923;SDS011;2987;50.884;14.818;2024-02-28T03:06:29;44.27;;;24.53;;
5923;SDS011;2987;50.884;14.818;2024-02-28T03:08:55;53.70;;;26.23;;
5923;SDS011;2987;50.884;14.818;2024-02-28T03:11:21;53.53;;;25.50;;
5923;SDS011;2987;50.884;14.818;2024-02-28T03:13:47;52.63;;;26.60;;
5923;SDS011;2987;50.884;14.818;2024-02-28T03:16:13;56.23;;;25.73;;
5923;SDS011;2987;50.884;14.818;2024-02-28T03:18:39;58.70;;;26.80;;
5923;SDS011;2987;50.884;14.818;2024-02-28T03:21:04;56.50;;;25.90;;
5923;SDS011;2987;50.884;14.818;2024-02-28T03:23:31;53.10;;;24.87;;
5923;SDS011;2987;50.884;14.818;2024-02-28T03:25:58;52.50;;;26.17;;
5923;SDS011;2987;50.884;14.818;2024-02-28T03:28:24;51.83;;;25.43;;
5923;SDS011;2987;50.884;14.818;2024-02-28T03:30:50;51.10;;;25.53;;
5923;SDS011;2987;50.884;14.818;2024-02-28T03:33:15;57.33;;;25.07;;
5923;SDS011;2987;50.884;14.818;2024-02-28T03:35:41;53.20;;;25.93;;
5923;SDS011;2987;50.884;14.818;2024-02-28T03:38:07;52.07;;;25.90;;
5923;SDS011;2987;50.884;14.818;2024-02-28T03:40:33;52.13;;;24.80;;
5923;SDS011;2987;50.884;14.818;2024-02-28T03:42:59;57.70;;;25.73;;
5923;SDS011;2987;50.884;14.818;2024-02-28T03:45:28;55.93;;;25.53;;
5923;SDS011;2987;50.884;14.818;2024-02-28T03:47:57;50.30;;;24.80;;
5923;SDS011;2987;50.884;14.818;2024-02-28T03:50:23;53.60;;;23.53;;
5923;SDS011;2987;50.884;14.818;2024-02-28T03:52:49;49.63;;;23.80;;
5923;SDS011;2987;50.884;14.818;2024-02-28T03:55:15;52.70;;;24.27;;
5923;SDS011;2987;50.884;14.818;2024-02-28T03:57:42;57.20;;;24.87;;
5923;SDS011;2987;50.884;14.818;2024-02-28T04:00:09;57.77;;;25.53;;
5923;SDS011;2987;50.884;14.818;2024-02-28T04:02:39;47.03;;;23.27;;
5923;SDS011;2987;50.884;14.818;2024-02-28T04:05:05;49.30;;;22.50;;
5923;SDS011;2987;50.884;14.818;2024-02-28T04:07:33;43.97;;;22.63;;
5923;SDS011;2987;50.884;14.818;2024-02-28T04:09:59;42.63;;;20.30;;
5923;SDS011;2987;50.884;14.818;2024-02-28T04:12:25;45.17;;;21.57;;
5923;SDS011;2987;50.884;14.818;2024-02-28T04:14:51;39.70;;;21.37;;
5923;SDS011;2987;50.884;14.818;2024-02-28T04:17:17;38.57;;;20.83;;
5923;SDS011;2987;50.884;14.818;2024-02-28T04:19:43;35.97;;;18.93;;
5923;SDS011;2987;50.884;14.818;2024-02-28T04:22:09;39.57;;;20.37;;
5923;SDS011;2987;50.884;14.818;2024-02-28T04:24:34;34.67;;;18.60;;
5923;SDS011;2987;50.884;14.818;2024-02-28T04:27:00;32.20;;;18.90;;
5923;SDS011;2987;50.884;14.818;2024-02-28T04:29:29;28.73;;;17.73;;
5923;SDS011;2987;50.884;14.818;2024-02-28T04:31:55;32.87;;;19.10;;
5923;SDS011;2987;50.884;14.818;2024-02-28T04:34:21;35.67;;;20.03;;
5923;SDS011;2987;50.884;14.818;2024-02-28T04:36:47;36.77;;;19.83;;
5923;SDS011;2987;50.884;14.818;2024-02-28T04:39:13;37.80;;;20.50;;
5923;SDS011;2987;50.884;14.818;2024-02-28T04:41:39;44.17;;;22.50;;
5923;SDS011;2987;50.884;14.818;2024-02-28T04:44:05;43.87;;;22.80;;
5923;SDS011;2987;50.884;14.818;2024-02-28T04:46:31;39.00;;;21.40;;
5923;SDS011;2987;50.884;14.818;2024-02-28T04:48:56;34.37;;;18.77;;
5923;SDS011;2987;50.884;14.818;2024-02-28T04:51:22;38.53;;;21.43;;
5923;SDS011;2987;50.884;14.818;2024-02-28T04:53:48;34.87;;;19.67;;
5923;SDS011;2987;50.884;14.818;2024-02-28T04:56:14;33.30;;;17.57;;
5923;SDS011;2987;50.884;14.818;2024-02-28T04:58:40;33.17;;;18.67;;
5923;SDS011;2987;50.884;14.818;2024-02-28T05:01:06;32.13;;;17.97;;
5923;SDS011;2987;50.884;14.818;2024-02-28T05:03:32;36.70;;;19.07;;
5923;SDS011;2987;50.884;14.818;2024-02-28T05:05:58;35.43;;;18.90;;
5923;SDS011;2987;50.884;14.818;2024-02-28T05:08:24;36.27;;;19.17;;
5923;SDS011;2987;50.884;14.818;2024-02-28T05:10:50;31.10;;;18.10;;
5923;SDS011;2987;50.884;14.818;2024-02-28T05:13:16;37.33;;;20.17;;
5923;SDS011;2987;50.884;14.818;2024-02-28T05:15:42;35.47;;;18.90;;
5923;SDS011;2987;50.884;14.818;2024-02-28T05:18:08;39.40;;;19.87;;
5923;SDS011;2987;50.884;14.818;2024-02-28T05:20:34;40.67;;;20.67;;
5923;SDS011;2987;50.884;14.818;2024-02-28T05:23:00;40.83;;;20.33;;
5923;SDS011;2987;50.884;14.818;2024-02-28T05:25:26;46.17;;;21.57;;
5923;SDS011;2987;50.884;14.818;2024-02-28T05:27:52;43.40;;;20.67;;
5923;SDS011;2987;50.884;14.818;2024-02-28T05:30:18;43.10;;;20.17;;
5923;SDS011;2987;50.884;14.818;2024-02-28T05:32:45;46.80;;;20.07;;
5923;SDS011;2987;50.884;14.818;2024-02-28T05:35:10;43.17;;;20.67;;
5923;SDS011;2987;50.884;14.818;2024-02-28T05:37:36;43.90;;;19.97;;
5923;SDS011;2987;50.884;14.818;2024-02-28T05:40:03;51.07;;;20.80;;
5923;SDS011;2987;50.884;14.818;2024-02-28T05:42:29;49.87;;;21.63;;
5923;SDS011;2987;50.884;14.818;2024-02-28T05:44:56;42.53;;;19.83;;
5923;SDS011;2987;50.884;14.818;2024-02-28T05:47:22;44.53;;;20.90;;
5923;SDS011;2987;50.884;14.818;2024-02-28T05:49:48;38.83;;;19.43;;
5923;SDS011;2987;50.884;14.818;2024-02-28T05:52:14;43.53;;;19.17;;
5923;SDS011;2987;50.884;14.818;2024-02-28T05:54:40;40.30;;;18.57;;
5923;SDS011;2987;50.884;14.818;2024-02-28T05:57:06;36.13;;;17.93;;
5923;SDS011;2987;50.884;14.818;2024-02-28T05:59:32;34.47;;;16.07;;
5923;SDS011;2987;50.884;14.818;2024-02-28T06:01:58;34.50;;;17.40;;
5923;SDS011;2987;50.884;14.818;2024-02-28T06:04:24;28.20;;;15.03;;
5923;SDS011;2987;50.884;14.818;2024-02-28T06:06:50;31.97;;;15.57;;
5923;SDS011;2987;50.884;14.818;2024-02-28T06:09:16;31.20;;;15.23;;
5923;SDS011;2987;50.884;14.818;2024-02-28T06:11:42;27.37;;;14.60;;
5923;SDS011;2987;50.884;14.818;2024-02-28T06:14:08;28.70;;;15.50;;
5923;SDS011;2987;50.884;14.818;2024-02-28T06:16:34;31.10;;;15.93;;
5923;SDS011;2987;50.884;14.818;2024-02-28T06:19:00;25.43;;;14.07;;
5923;SDS011;2987;50.884;14.818;2024-02-28T06:21:26;27.77;;;15.57;;
5923;SDS011;2987;50.884;14.818;2024-02-28T06:23:52;29.97;;;15.10;;
5923;SDS011;2987;50.884;14.818;2024-02-28T06:26:18;27.43;;;14.67;;
5923;SDS011;2987;50.884;14.818;2024-02-28T06:28:44;31.57;;;16.20;;
5923;SDS011;2987;50.884;14.818;2024-02-28T06:31:14;30.97;;;15.73;;
5923;SDS011;2987;50.884;14.818;2024-02-28T06:33:41;26.20;;;15.70;;
5923;SDS011;2987;50.884;14.818;2024-02-28T06:36:08;33.03;;;16.20;;
5923;SDS011;2987;50.884;14.818;2024-02-28T06:38:34;27.03;;;15.43;;
5923;SDS011;2987;50.884;14.818;2024-02-28T06:41:03;35.00;;;17.30;;
5923;SDS011;2987;50.884;14.818;2024-02-28T06:43:32;29.67;;;17.23;;
5923;SDS011;2987;50.884;14.818;2024-02-28T06:45:59;30.40;;;16.50;;
5923;SDS011;2987;50.884;14.818;2024-02-28T06:48:25;30.27;;;16.50;;
5923;SDS011;2987;50.884;14.818;2024-02-28T06:50:51;33.43;;;16.70;;
5923;SDS011;2987;50.884;14.818;2024-02-28T06:53:17;25.50;;;15.47;;
5923;SDS011;2987;50.884;14.818;2024-02-28T06:55:43;29.23;;;16.33;;
5923;SDS011;2987;50.884;14.818;2024-02-28T06:58:11;28.00;;;16.80;;
5923;SDS011;2987;50.884;14.818;2024-02-28T07:00:37;28.90;;;17.07;;
5923;SDS011;2987;50.884;14.818;2024-02-28T07:03:03;29.50;;;17.07;;
5923;SDS011;2987;50.884;14.818;2024-02-28T07:05:29;31.50;;;16.37;;
5923;SDS011;2987;50.884;14.818;2024-02-28T07:07:55;27.53;;;16.47;;
5923;SDS011;2987;50.884;14.818;2024-02-28T07:10:21;27.07;;;15.40;;
5923;SDS011;2987;50.884;14.818;2024-02-28T07:12:48;30.20;;;16.10;;
5923;SDS011;2987;50.884;14.818;2024-02-28T07:15:14;29.70;;;15.47;;
5923;SDS011;2987;50.884;14.818;2024-02-28T07:17:44;29.00;;;15.60;;
5923;SDS011;2987;50.884;14.818;2024-02-28T07:20:10;28.57;;;15.40;;
5923;SDS011;2987;50.884;14.818;2024-02-28T07:22:37;32.90;;;16.77;;
5923;SDS011;2987;50.884;14.818;2024-02-28T07:25:04;29.50;;;15.57;;
5923;SDS011;2987;50.884;14.818;2024-02-28T07:27:32;29.43;;;16.37;;
5923;SDS011;2987;50.884;14.818;2024-02-28T07:29:58;28.03;;;15.73;;
5923;SDS011;2987;50.884;14.818;2024-02-28T07:32:24;27.43;;;15.37;;
5923;SDS011;2987;50.884;14.818;2024-02-28T07:34:50;32.33;;;16.20;;
5923;SDS011;2987;50.884;14.818;2024-02-28T07:37:16;27.37;;;15.13;;
5923;SDS011;2987;50.884;14.818;2024-02-28T07:39:42;26.67;;;15.77;;
5923;SDS011;2987;50.884;14.818;2024-02-28T07:42:08;31.00;;;15.43;;
5923;SDS011;2987;50.884;14.818;2024-02-28T07:44:34;26.50;;;14.60;;
5923;SDS011;2987;50.884;14.818;2024-02-28T07:47:00;22.43;;;14.17;;
5923;SDS011;2987;50.884;14.818;2024-02-28T07:49:26;25.87;;;14.47;;
5923;SDS011;2987;50.884;14.818;2024-02-28T07:51:52;23.93;;;14.20;;
5923;SDS011;2987;50.884;14.818;2024-02-28T07:54:18;25.37;;;14.77;;
5923;SDS011;2987;50.884;14.818;2024-02-28T07:56:45;24.50;;;14.23;;
5923;SDS011;2987;50.884;14.818;2024-02-28T07:59:12;23.70;;;14.70;;
5923;SDS011;2987;50.884;14.818;2024-02-28T08:01:39;23.57;;;13.90;;
5923;SDS011;2987;50.884;14.818;2024-02-28T08:04:06;27.67;;;15.37;;
5923;SDS011;2987;50.884;14.818;2024-02-28T08:06:34;28.33;;;15.43;;
5923;SDS011;2987;50.884;14.818;2024-02-28T08:09:01;21.40;;;13.80;;
5923;SDS011;2987;50.884;14.818;2024-02-28T08:11:29;27.70;;;14.43;;
5923;SDS011;2987;50.884;14.818;2024-02-28T08:13:56;22.17;;;12.57;;
5923;SDS011;2987;50.884;14.818;2024-02-28T08:16:22;26.20;;;13.50;;
5923;SDS011;2987;50.884;14.818;2024-02-28T08:18:47;23.90;;;13.30;;
5923;SDS011;2987;50.884;14.818;2024-02-28T08:21:13;24.37;;;12.00;;
5923;SDS011;2987;50.884;14.818;2024-02-28T08:23:40;25.43;;;13.67;;
5923;SDS011;2987;50.884;14.818;2024-02-28T08:26:05;24.07;;;12.97;;
5923;SDS011;2987;50.884;14.818;2024-02-28T08:28:32;23.67;;;12.57;;
5923;SDS011;2987;50.884;14.818;2024-02-28T08:30:58;24.03;;;12.10;;
5923;SDS011;2987;50.884;14.818;2024-02-28T08:33:24;20.80;;;11.30;;
5923;SDS011;2987;50.884;14.818;2024-02-28T08:35:50;20.57;;;11.23;;
5923;SDS011;2987;50.884;14.818;2024-02-28T08:38:16;20.00;;;11.80;;
5923;SDS011;2987;50.884;14.818;2024-02-28T08:40:42;19.60;;;10.80;;
5923;SDS011;2987;50.884;14.818;2024-02-28T08:43:08;20.77;;;11.07;;
5923;SDS011;2987;50.884;14.818;2024-02-28T08:45:34;18.70;;;10.03;;
5923;SDS011;2987;50.884;14.818;2024-02-28T08:48:00;16.90;;;10.17;;
5923;SDS011;2987;50.884;14.818;2024-02-28T08:50:27;18.17;;;10.27;;
5923;SDS011;2987;50.884;14.818;2024-02-28T08:52:54;16.77;;;9.93;;
5923;SDS011;2987;50.884;14.818;2024-02-28T08:55:20;17.37;;;10.20;;
5923;SDS011;2987;50.884;14.818;2024-02-28T08:57:47;14.53;;;9.43;;
5923;SDS011;2987;50.884;14.818;2024-02-28T09:00:14;17.80;;;9.23;;
5923;SDS011;2987;50.884;14.818;2024-02-28T09:02:41;13.17;;;9.17;;
5923;SDS011;2987;50.884;14.818;2024-02-28T09:05:07;14.93;;;9.30;;
5923;SDS011;2987;50.884;14.818;2024-02-28T09:07:34;14.57;;;8.87;;
5923;SDS011;2987;50.884;14.818;2024-02-28T09:10:04;15.67;;;9.87;;
5923;SDS011;2987;50.884;14.818;2024-02-28T09:12:31;14.73;;;9.33;;
5923;SDS011;2987;50.884;14.818;2024-02-28T09:14:57;15.20;;;9.67;;
5923;SDS011;2987;50.884;14.818;2024-02-28T09:17:24;15.97;;;9.90;;
5923;SDS011;2987;50.884;14.818;2024-02-28T09:19:50;15.63;;;10.57;;
5923;SDS011;2987;50.884;14.818;2024-02-28T09:22:17;17.97;;;10.20;;
5923;SDS011;2987;50.884;14.818;2024-02-28T09:24:43;19.90;;;11.23;;
5923;SDS011;2987;50.884;14.818;2024-02-28T09:27:09;18.67;;;10.03;;
5923;SDS011;2987;50.884;14.818;2024-02-28T09:29:35;16.87;;;9.70;;
5923;SDS011;2987;50.884;14.818;2024-02-28T09:32:01;17.47;;;10.27;;
5923;SDS011;2987;50.884;14.818;2024-02-28T09:34:27;18.03;;;10.70;;
5923;SDS011;2987;50.884;14.818;2024-02-28T09:36:53;19.30;;;10.43;;
5923;SDS011;2987;50.884;14.818;2024-02-28T09:39:19;17.13;;;10.23;;
5923;SDS011;2987;50.884;14.818;2024-02-28T09:41:50;18.70;;;10.20;;
5923;SDS011;2987;50.884;14.818;2024-02-28T09:44:16;19.40;;;10.77;;
5923;SDS011;2987;50.884;14.818;2024-02-28T09:46:43;17.93;;;9.87;;
5923;SDS011;2987;50.884;14.818;2024-02-28T09:49:10;19.70;;;9.87;;
5923;SDS011;2987;50.884;14.818;2024-02-28T09:51:36;19.63;;;10.43;;
5923;SDS011;2987;50.884;14.818;2024-02-28T09:54:03;20.03;;;10.27;;
5923;SDS011;2987;50.884;14.818;2024-02-28T09:56:30;18.23;;;9.13;;
5923;SDS011;2987;50.884;14.818;2024-02-28T09:58:57;15.60;;;9.17;;
5923;SDS011;2987;50.884;14.818;2024-02-28T10:01:23;20.00;;;9.93;;
5923;SDS011;2987;50.884;14.818;2024-02-28T10:03:52;20.40;;;9.33;;
5923;SDS011;2987;50.884;14.818;2024-02-28T10:06:21;16.07;;;8.67;;
5923;SDS011;2987;50.884;14.818;2024-02-28T10:08:48;18.73;;;10.10;;
5923;SDS011;2987;50.884;14.818;2024-02-28T10:11:17;15.57;;;9.27;;
5923;SDS011;2987;50.884;14.818;2024-02-28T10:13:46;19.10;;;10.63;;
5923;SDS011;2987;50.884;14.818;2024-02-28T10:16:13;18.90;;;9.90;;
5923;SDS011;2987;50.884;14.818;2024-02-28T10:18:44;17.90;;;9.60;;
5923;SDS011;2987;50.884;14.818;2024-02-28T10:21:11;18.33;;;9.03;;
5923;SDS011;2987;50.884;14.818;2024-02-28T10:23:39;19.47;;;9.40;;
5923;SDS011;2987;50.884;14.818;2024-02-28T10:26:08;18.33;;;9.37;;
5923;SDS011;2987;50.884;14.818;2024-02-28T10:28:38;19.70;;;10.30;;
5923;SDS011;2987;50.884;14.818;2024-02-28T10:31:06;19.27;;;9.77;;
5923;SDS011;2987;50.884;14.818;2024-02-28T10:33:33;17.87;;;9.20;;
5923;SDS011;2987;50.884;14.818;2024-02-28T10:36:04;19.57;;;10.47;;
5923;SDS011;2987;50.884;14.818;2024-02-28T10:38:31;20.93;;;10.03;;
5923;SDS011;2987;50.884;14.818;2024-02-28T10:41:04;19.53;;;10.53;;
5923;SDS011;2987;50.884;14.818;2024-02-28T10:43:30;25.43;;;11.43;;
5923;SDS011;2987;50.884;14.818;2024-02-28T10:45:57;22.00;;;10.73;;
5923;SDS011;2987;50.884;14.818;2024-02-28T10:48:26;19.03;;;10.03;;
5923;SDS011;2987;50.884;14.818;2024-02-28T10:50:53;15.53;;;9.37;;
5923;SDS011;2987;50.884;14.818;2024-02-28T10:53:22;18.27;;;10.07;;
5923;SDS011;2987;50.884;14.818;2024-02-28T10:56:08;18.13;;;9.97;;
5923;SDS011;2987;50.884;14.818;2024-02-28T10:58:36;18.10;;;9.67;;
5923;SDS011;2987;50.884;14.818;2024-02-28T11:01:16;16.70;;;10.00;;
5923;SDS011;2987;50.884;14.818;2024-02-28T11:03:42;18.00;;;9.73;;
5923;SDS011;2987;50.884;14.818;2024-02-28T11:06:19;18.27;;;10.10;;
5923;SDS011;2987;50.884;14.818;2024-02-28T11:08:47;23.27;;;10.77;;
5923;SDS011;2987;50.884;14.818;2024-02-28T11:11:17;18.90;;;9.80;;
5923;SDS011;2987;50.884;14.818;2024-02-28T11:13:51;20.53;;;11.03;;
5923;SDS011;2987;50.884;14.818;2024-02-28T11:16:25;19.23;;;10.23;;
5923;SDS011;2987;50.884;14.818;2024-02-28T11:19:02;18.50;;;10.43;;
5923;SDS011;2987;50.884;14.818;2024-02-28T11:21:33;15.10;;;9.27;;
5923;SDS011;2987;50.884;14.818;2024-02-28T11:24:00;18.00;;;10.50;;
5923;SDS011;2987;50.884;14.818;2024-02-28T11:26:27;19.23;;;9.60;;
5923;SDS011;2987;50.884;14.818;2024-02-28T11:28:56;20.17;;;10.30;;
5923;SDS011;2987;50.884;14.818;2024-02-28T11:31:23;18.23;;;10.07;;
5923;SDS011;2987;50.884;14.818;2024-02-28T11:33:49;17.23;;;10.13;;
5923;SDS011;2987;50.884;14.818;2024-02-28T11:36:14;16.23;;;9.40;;
5923;SDS011;2987;50.884;14.818;2024-02-28T11:38:41;18.53;;;11.23;;
5923;SDS011;2987;50.884;14.818;2024-02-28T11:41:07;16.93;;;9.97;;
5923;SDS011;2987;50.884;14.818;2024-02-28T11:43:33;18.27;;;10.33;;
5923;SDS011;2987;50.884;14.818;2024-02-28T11:46:09;19.17;;;10.80;;
5923;SDS011;2987;50.884;14.818;2024-02-28T11:48:35;18.83;;;9.60;;
5923;SDS011;2987;50.884;14.818;2024-02-28T11:51:01;14.53;;;8.83;;
5923;SDS011;2987;50.884;14.818;2024-02-28T11:53:27;14.10;;;8.63;;
5923;SDS011;2987;50.884;14.818;2024-02-28T11:55:53;15.37;;;8.73;;
5923;SDS011;2987;50.884;14.818;2024-02-28T11:58:21;13.47;;;7.83;;
5923;SDS011;2987;50.884;14.818;2024-02-28T12:00:48;12.27;;;8.10;;
5923;SDS011;2987;50.884;14.818;2024-02-28T12:03:14;14.93;;;8.77;;
5923;SDS011;2987;50.884;14.818;2024-02-28T12:05:45;17.77;;;9.23;;
5923;SDS011;2987;50.884;14.818;2024-02-28T12:08:11;17.73;;;9.33;;
5923;SDS011;2987;50.884;14.818;2024-02-28T12:10:37;16.07;;;8.90;;
5923;SDS011;2987;50.884;14.818;2024-02-28T12:13:03;12.90;;;8.60;;
5923;SDS011;2987;50.884;14.818;2024-02-28T12:15:30;13.17;;;8.33;;
5923;SDS011;2987;50.884;14.818;2024-02-28T12:17:57;12.17;;;8.27;;
5923;SDS011;2987;50.884;14.818;2024-02-28T12:20:26;13.87;;;8.93;;
5923;SDS011;2987;50.884;14.818;2024-02-28T12:22:51;12.27;;;7.70;;
5923;SDS011;2987;50.884;14.818;2024-02-28T12:25:17;12.87;;;8.17;;
5923;SDS011;2987;50.884;14.818;2024-02-28T12:27:43;16.50;;;8.10;;
5923;SDS011;2987;50.884;14.818;2024-02-28T12:30:09;12.37;;;7.87;;
5923;SDS011;2987;50.884;14.818;2024-02-28T12:32:36;10.47;;;7.80;;
5923;SDS011;2987;50.884;14.818;2024-02-28T12:35:02;11.10;;;7.33;;
5923;SDS011;2987;50.884;14.818;2024-02-28T12:37:29;12.47;;;8.07;;
5923;SDS011;2987;50.884;14.818;2024-02-28T12:39:55;11.10;;;7.33;;
5923;SDS011;2987;50.884;14.818;2024-02-28T12:42:21;10.83;;;7.67;;
5923;SDS011;2987;50.884;14.818;2024-02-28T12:44:47;11.37;;;8.10;;
5923;SDS011;2987;50.884;14.818;2024-02-28T12:47:13;12.17;;;7.60;;
5923;SDS011;2987;50.884;14.818;2024-02-28T12:49:39;11.13;;;7.90;;
5923;SDS011;2987;50.884;14.818;2024-02-28T12:52:05;12.73;;;7.67;;
5923;SDS011;2987;50.884;14.818;2024-02-28T12:54:31;10.70;;;7.63;;
5923;SDS011;2987;50.884;14.818;2024-02-28T12:56:57;11.43;;;7.70;;
5923;SDS011;2987;50.884;14.818;2024-02-28T12:59:23;10.87;;;7.67;;
5923;SDS011;2987;50.884;14.818;2024-02-28T13:01:48;12.40;;;8.50;;
5923;SDS011;2987;50.884;14.818;2024-02-28T13:04:15;12.67;;;8.50;;
5923;SDS011;2987;50.884;14.818;2024-02-28T13:06:41;10.40;;;7.73;;
5923;SDS011;2987;50.884;14.818;2024-02-28T13:09:07;10.70;;;7.77;;
5923;SDS011;2987;50.884;14.818;2024-02-28T13:11:37;13.73;;;8.13;;
5923;SDS011;2987;50.884;14.818;2024-02-28T13:14:04;9.60;;;7.20;;
5923;SDS011;2987;50.884;14.818;2024-02-28T13:16:30;10.13;;;7.27;;
5923;SDS011;2987;50.884;14.818;2024-02-28T13:18:56;12.37;;;7.73;;
5923;SDS011;2987;50.884;14.818;2024-02-28T13:21:22;11.03;;;8.03;;
5923;SDS011;2987;50.884;14.818;2024-02-28T13:23:48;12.33;;;8.03;;
5923;SDS011;2987;50.884;14.818;2024-02-28T13:26:14;11.00;;;7.97;;
5923;SDS011;2987;50.884;14.818;2024-02-28T13:28:43;11.33;;;8.30;;
5923;SDS011;2987;50.884;14.818;2024-02-28T13:31:10;14.00;;;9.10;;
5923;SDS011;2987;50.884;14.818;2024-02-28T13:33:36;13.63;;;8.77;;
5923;SDS011;2987;50.884;14.818;2024-02-28T13:36:03;13.80;;;9.33;;
5923;SDS011;2987;50.884;14.818;2024-02-28T13:38:29;12.50;;;8.17;;
5923;SDS011;2987;50.884;14.818;2024-02-28T13:40:55;14.13;;;8.87;;
5923;SDS011;2987;50.884;14.818;2024-02-28T13:43:22;13.33;;;9.00;;
5923;SDS011;2987;50.884;14.818;2024-02-28T13:45:51;13.47;;;8.47;;
5923;SDS011;2987;50.884;14.818;2024-02-28T13:48:17;13.37;;;8.80;;
5923;SDS011;2987;50.884;14.818;2024-02-28T13:50:46;12.27;;;8.57;;
5923;SDS011;2987;50.884;14.818;2024-02-28T13:53:14;13.90;;;9.20;;
5923;SDS011;2987;50.884;14.818;2024-02-28T13:55:44;15.73;;;9.60;;
5923;SDS011;2987;50.884;14.818;2024-02-28T13:58:10;14.40;;;9.57;;
5923;SDS011;2987;50.884;14.818;2024-02-28T14:00:38;16.27;;;11.07;;
5923;SDS011;2987;50.884;14.818;2024-02-28T14:03:04;17.27;;;10.63;;
5923;SDS011;2987;50.884;14.818;2024-02-28T14:05:34;14.00;;;10.30;;
5923;SDS011;2987;50.884;14.818;2024-02-28T14:08:00;14.37;;;10.57;;
5923;SDS011;2987;50.884;14.818;2024-02-28T14:10:29;19.43;;;11.33;;
5923;SDS011;2987;50.884;14.818;2024-02-28T14:12:55;15.20;;;10.17;;
5923;SDS011;2987;50.884;14.818;2024-02-28T14:15:21;21.57;;;12.43;;
5923;SDS011;2987;50.884;14.818;2024-02-28T14:17:48;16.93;;;11.50;;
5923;SDS011;2987;50.884;14.818;2024-02-28T14:20:14;18.30;;;11.73;;
5923;SDS011;2987;50.884;14.818;2024-02-28T14:22:40;18.23;;;12.13;;
5923;SDS011;2987;50.884;14.818;2024-02-28T14:25:13;18.17;;;11.80;;
5923;SDS011;2987;50.884;14.818;2024-02-28T14:27:41;19.93;;;11.80;;
5923;SDS011;2987;50.884;14.818;2024-02-28T14:30:09;18.57;;;11.57;;
5923;SDS011;2987;50.884;14.818;2024-02-28T14:32:36;18.23;;;11.70;;
5923;SDS011;2987;50.884;14.818;2024-02-28T14:35:03;18.30;;;11.87;;